createdAt,value
2023-03-29T00:01:01.226Z,7.57
2023-03-29T00:02:03.224Z,8.95
2023-03-29T00:03:05.160Z,9.65
2023-03-29T00:04:07.310Z,7.84
2023-03-29T00:05:09.333Z,9.58
2023-03-29T00:06:11.730Z,8.01
2023-03-29T00:07:13.515Z,7.58
2023-03-29T00:08:15.329Z,8.63
2023-03-29T00:09:17.151Z,6.91
2023-03-29T00:10:19.050Z,8.45
2023-03-29T00:11:20.848Z,8.09
2023-03-29T00:12:22.642Z,7.63
2023-03-29T00:13:24.438Z,7.19
2023-03-29T00:14:26.256Z,7.00
2023-03-29T00:15:28.132Z,7.23
2023-03-29T00:16:29.947Z,7.75
2023-03-29T00:17:31.760Z,8.11
2023-03-29T00:18:33.607Z,8.43
2023-03-29T00:19:35.429Z,7.19
2023-03-29T00:20:37.268Z,6.46
2023-03-29T00:21:39.066Z,6.65
2023-03-29T00:22:40.872Z,7.27
2023-03-29T00:23:42.665Z,7.42
2023-03-29T00:24:44.501Z,7.95
2023-03-29T00:25:46.276Z,8.14
2023-03-29T00:26:48.075Z,7.92
2023-03-29T00:27:49.881Z,7.98
2023-03-29T00:28:51.662Z,6.41
2023-03-29T00:29:53.512Z,6.84
2023-03-29T00:30:55.316Z,7.83
2023-03-29T00:31:57.148Z,6.31
2023-03-29T00:32:58.925Z,6.97
2023-03-29T00:34:00.682Z,6.90
2023-03-29T00:35:02.501Z,7.17
2023-03-29T00:36:04.531Z,6.86
2023-03-29T00:37:06.309Z,6.42
2023-03-29T00:38:08.096Z,7.64
2023-03-29T00:39:09.896Z,7.31
2023-03-29T00:40:12.326Z,7.94
2023-03-29T00:41:14.111Z,5.75
2023-03-29T00:42:15.917Z,7.69
2023-03-29T00:43:17.735Z,6.83
2023-03-29T00:44:19.558Z,6.31
2023-03-29T00:45:21.528Z,7.32
2023-03-29T00:46:23.422Z,6.37
2023-03-29T00:47:25.215Z,6.55
2023-03-29T00:48:27.091Z,7.00
2023-03-29T00:49:28.768Z,5.84
2023-03-29T00:50:30.593Z,6.59
2023-03-29T00:51:32.401Z,6.45
2023-03-29T00:52:34.197Z,5.63
2023-03-29T00:53:36.008Z,6.48
2023-03-29T00:54:37.795Z,6.59
2023-03-29T00:55:39.620Z,5.52
2023-03-29T00:56:41.455Z,6.25
2023-03-29T00:57:43.363Z,7.24
2023-03-29T00:58:45.139Z,6.39
2023-03-29T00:59:46.923Z,6.60
2023-03-29T01:00:48.750Z,6.32
2023-03-29T01:01:51.628Z,5.99
2023-03-29T01:02:53.522Z,8.53
2023-03-29T01:03:55.366Z,7.27
2023-03-29T01:04:57.109Z,5.89
2023-03-29T01:05:58.955Z,7.23
2023-03-29T01:07:00.994Z,6.03
2023-03-29T01:08:02.955Z,5.63
2023-03-29T01:09:04.776Z,5.97
2023-03-29T01:10:06.742Z,6.33
2023-03-29T01:11:08.581Z,5.87
2023-03-29T01:12:10.398Z,5.77
2023-03-29T01:13:12.181Z,5.91
2023-03-29T01:14:13.968Z,5.80
2023-03-29T01:15:15.771Z,6.44
2023-03-29T01:16:17.938Z,5.93
2023-03-29T01:17:19.720Z,6.39
2023-03-29T01:18:21.544Z,6.01
2023-03-29T01:19:23.316Z,5.83
2023-03-29T01:20:25.111Z,5.64
2023-03-29T01:21:27.119Z,5.87
2023-03-29T01:22:28.910Z,5.51
2023-03-29T01:23:30.739Z,5.17
2023-03-29T01:24:32.558Z,6.77
2023-03-29T01:25:34.360Z,5.45
2023-03-29T01:26:36.198Z,5.59
2023-03-29T01:27:38.006Z,4.85
2023-03-29T01:28:39.795Z,5.45
2023-03-29T01:29:41.594Z,5.38
2023-03-29T01:30:43.391Z,5.43
2023-03-29T01:31:45.276Z,5.19
2023-03-29T01:32:47.057Z,6.30
2023-03-29T01:33:48.816Z,5.17
2023-03-29T01:34:50.668Z,5.45
2023-03-29T01:35:52.515Z,5.40
2023-03-29T01:36:54.401Z,6.14
2023-03-29T01:37:56.192Z,5.57
2023-03-29T01:38:58.013Z,5.07
2023-03-29T01:39:59.827Z,4.99
2023-03-29T01:41:01.760Z,5.56
2023-03-29T01:42:03.675Z,5.95
2023-03-29T01:43:05.469Z,4.51
2023-03-29T01:44:07.271Z,4.90
2023-03-29T01:45:09.113Z,5.41
2023-03-29T01:46:11.320Z,6.03
2023-03-29T01:47:13.164Z,4.21
2023-03-29T01:48:14.972Z,4.71
2023-03-29T01:49:16.757Z,4.73
2023-03-29T01:50:18.572Z,4.53
2023-03-29T01:51:20.402Z,5.01
2023-03-29T01:52:22.334Z,4.71
2023-03-29T01:53:24.163Z,4.23
2023-03-29T01:54:25.932Z,4.91
2023-03-29T01:55:27.735Z,4.87
2023-03-29T01:56:29.601Z,4.83
2023-03-29T01:57:31.522Z,5.21
2023-03-29T01:58:33.319Z,5.06
2023-03-29T01:59:35.118Z,4.16
2023-03-29T02:00:36.918Z,4.73
2023-03-29T02:01:38.784Z,4.83
2023-03-29T02:02:40.870Z,5.35
2023-03-29T02:03:42.776Z,5.10
2023-03-29T02:04:44.777Z,4.97
2023-03-29T02:05:46.579Z,4.41
2023-03-29T02:06:48.369Z,5.08
2023-03-29T02:07:50.209Z,5.03
2023-03-29T02:08:52.019Z,5.45
2023-03-29T02:09:53.825Z,4.44
2023-03-29T02:10:55.620Z,4.16
2023-03-29T02:11:57.420Z,4.64
2023-03-29T02:12:59.264Z,4.57
2023-03-29T02:14:01.079Z,4.69
2023-03-29T02:15:02.884Z,3.93
2023-03-29T02:16:04.675Z,4.40
2023-03-29T02:17:06.474Z,5.23
2023-03-29T02:18:08.354Z,4.79
2023-03-29T02:19:10.216Z,5.49
2023-03-29T02:20:12.316Z,5.14
2023-03-29T02:21:14.117Z,5.02
2023-03-29T02:22:15.918Z,5.61
2023-03-29T02:23:17.763Z,5.31
2023-03-29T02:24:19.584Z,6.33
2023-03-29T02:25:21.362Z,5.99
2023-03-29T02:26:23.161Z,6.75
2023-03-29T02:27:24.969Z,6.62
2023-03-29T02:28:26.708Z,5.11
2023-03-29T02:29:28.484Z,6.27
2023-03-29T02:30:30.281Z,5.97
2023-03-29T02:31:32.141Z,5.55
2023-03-29T02:32:33.916Z,5.31
2023-03-29T02:33:35.735Z,4.91
2023-03-29T02:34:37.420Z,5.06
2023-03-29T02:35:39.290Z,5.93
2023-03-29T02:36:41.130Z,5.25
2023-03-29T02:37:42.938Z,6.27
2023-03-29T02:38:44.760Z,6.15
2023-03-29T02:39:46.549Z,7.31
2023-03-29T02:40:48.350Z,6.77
2023-03-29T02:41:50.160Z,6.88
2023-03-29T02:42:51.955Z,8.01
2023-03-29T02:43:53.784Z,8.18
2023-03-29T02:44:55.569Z,7.79
2023-03-29T02:45:57.378Z,6.03
2023-03-29T02:46:59.259Z,7.21
2023-03-29T02:48:01.143Z,8.43
2023-03-29T02:49:02.925Z,8.54
2023-03-29T02:50:04.712Z,11.23
2023-03-29T02:51:06.514Z,9.99
2023-03-29T02:52:08.366Z,9.59
2023-03-29T02:53:10.124Z,8.91
2023-03-29T02:54:11.967Z,8.81
2023-03-29T02:55:13.768Z,10.68
2023-03-29T02:56:15.551Z,11.81
2023-03-29T02:57:17.429Z,9.41
2023-03-29T02:58:19.256Z,10.46
2023-03-29T02:59:21.098Z,11.93
2023-03-29T03:00:22.897Z,11.31
2023-03-29T03:01:24.806Z,13.44
2023-03-29T03:02:26.630Z,13.94
2023-03-29T03:03:28.577Z,15.89
2023-03-29T03:04:30.456Z,14.01
2023-03-29T03:05:32.284Z,14.84
2023-03-29T03:06:34.095Z,12.68
2023-03-29T03:07:35.894Z,10.88
2023-03-29T03:08:37.704Z,12.60
2023-03-29T03:09:39.539Z,12.56
2023-03-29T03:10:41.347Z,12.89
2023-03-29T03:11:43.143Z,13.60
2023-03-29T03:12:44.995Z,13.85
2023-03-29T03:13:46.784Z,13.81
2023-03-29T03:14:48.637Z,11.62
2023-03-29T03:15:50.482Z,12.03
2023-03-29T03:16:52.274Z,13.16
2023-03-29T03:17:54.145Z,12.90
2023-03-29T03:18:55.992Z,12.82
2023-03-29T03:19:57.883Z,14.78
2023-03-29T03:20:59.806Z,12.54
2023-03-29T03:22:01.780Z,14.64
2023-03-29T03:23:03.635Z,12.87
2023-03-29T03:24:05.418Z,11.81
2023-03-29T03:25:07.233Z,12.74
2023-03-29T03:26:09.045Z,11.32
2023-03-29T03:27:10.848Z,11.99
2023-03-29T03:28:12.632Z,12.09
2023-03-29T03:29:14.432Z,11.41
2023-03-29T03:30:16.612Z,12.19
2023-03-29T03:31:18.435Z,12.49
2023-03-29T03:32:20.201Z,12.08
2023-03-29T03:33:22.100Z,13.01
2023-03-29T03:34:23.892Z,13.63
2023-03-29T03:35:25.772Z,12.16
2023-03-29T03:36:27.526Z,12.16
2023-03-29T03:37:29.320Z,10.07
2023-03-29T03:38:31.115Z,13.03
2023-03-29T03:39:32.903Z,15.95
2023-03-29T03:40:34.751Z,15.50
2023-03-29T03:41:36.538Z,13.29
2023-03-29T03:42:38.324Z,13.99
2023-03-29T03:43:40.118Z,14.61
2023-03-29T03:44:41.908Z,12.95
2023-03-29T03:45:43.777Z,11.67
2023-03-29T03:46:45.536Z,19.67
2023-03-29T03:47:47.456Z,17.19
2023-03-29T03:48:49.202Z,19.81
2023-03-29T03:49:51.005Z,27.08
2023-03-29T03:50:52.834Z,18.88
2023-03-29T03:51:55.996Z,16.23
2023-03-29T03:52:57.829Z,16.88
2023-03-29T03:53:59.617Z,16.09
2023-03-29T03:55:01.416Z,14.69
2023-03-29T03:56:03.239Z,14.97
2023-03-29T03:57:05.043Z,16.95
2023-03-29T03:58:06.811Z,15.97
2023-03-29T03:59:08.604Z,16.24
2023-03-29T04:00:10.385Z,16.99
2023-03-29T04:01:12.191Z,15.79
2023-03-29T04:02:14.038Z,15.51
2023-03-29T04:03:15.928Z,17.93
2023-03-29T04:04:17.918Z,16.49
2023-03-29T04:05:19.677Z,17.76
2023-03-29T04:06:21.521Z,16.18
2023-03-29T04:07:23.343Z,16.81
2023-03-29T04:08:25.119Z,14.41
2023-03-29T04:09:26.904Z,16.90
2023-03-29T04:10:28.696Z,15.28
2023-03-29T04:11:30.526Z,15.04
2023-03-29T04:12:32.337Z,15.82
2023-03-29T04:13:34.111Z,16.56
2023-03-29T04:14:35.820Z,13.92
2023-03-29T04:15:37.618Z,12.74
2023-03-29T04:16:39.530Z,13.51
2023-03-29T04:17:41.437Z,11.57
2023-03-29T04:18:43.273Z,13.76
2023-03-29T04:19:45.072Z,13.81
2023-03-29T04:20:46.882Z,13.09
2023-03-29T04:21:48.716Z,14.47
2023-03-29T04:22:50.496Z,13.51
2023-03-29T04:23:52.286Z,13.21
2023-03-29T04:24:54.063Z,14.35
2023-03-29T04:25:55.890Z,14.17
2023-03-29T04:26:57.684Z,14.26
2023-03-29T04:27:59.462Z,14.39
2023-03-29T04:29:01.250Z,13.99
2023-03-29T04:30:03.042Z,14.99
2023-03-29T04:31:05.047Z,14.13
2023-03-29T04:32:07.178Z,15.10
2023-03-29T04:33:09.004Z,12.81
2023-03-29T04:34:10.877Z,14.02
2023-03-29T04:35:12.651Z,13.79
2023-03-29T04:36:15.093Z,17.29
2023-03-29T04:37:16.882Z,15.29
2023-03-29T04:38:18.667Z,14.62
2023-03-29T04:39:20.450Z,14.19
2023-03-29T04:40:22.260Z,14.89
2023-03-29T04:41:24.062Z,13.24
2023-03-29T04:42:25.976Z,12.85
2023-03-29T04:43:27.759Z,14.58
2023-03-29T04:44:29.550Z,13.78
2023-03-29T04:45:31.358Z,16.62
2023-03-29T04:46:33.209Z,14.95
2023-03-29T04:47:35.322Z,12.41
2023-03-29T04:48:37.078Z,12.85
2023-03-29T04:49:38.861Z,12.31
2023-03-29T04:50:40.639Z,13.61
2023-03-29T04:51:42.415Z,12.50
2023-03-29T04:52:44.204Z,12.04
2023-03-29T04:53:45.969Z,11.93
2023-03-29T04:54:47.730Z,12.38
2023-03-29T04:55:49.539Z,12.52
2023-03-29T04:56:51.365Z,14.49
2023-03-29T04:57:53.153Z,12.41
2023-03-29T04:58:54.935Z,12.28
2023-03-29T04:59:56.732Z,13.78
2023-03-29T05:00:58.528Z,12.19
2023-03-29T05:02:00.333Z,11.66
2023-03-29T05:03:02.155Z,11.90
2023-03-29T05:04:03.955Z,12.35
2023-03-29T05:05:05.722Z,12.19
2023-03-29T05:06:07.635Z,14.51
2023-03-29T05:07:09.414Z,11.33
2023-03-29T05:08:11.242Z,11.27
2023-03-29T05:09:12.925Z,11.16
2023-03-29T05:10:14.836Z,11.25
2023-03-29T05:11:16.605Z,13.00
2023-03-29T05:12:18.394Z,11.43
2023-03-29T05:13:20.224Z,10.20
2023-03-29T05:14:22.014Z,11.02
2023-03-29T05:15:23.803Z,11.19
2023-03-29T05:16:25.606Z,11.89
2023-03-29T05:17:27.619Z,11.10
2023-03-29T05:18:29.519Z,12.65
2023-03-29T05:19:31.309Z,10.11
2023-03-29T05:20:33.103Z,10.81
2023-03-29T05:21:34.898Z,11.49
2023-03-29T05:22:36.696Z,10.37
2023-03-29T05:23:38.535Z,11.09
2023-03-29T05:24:40.323Z,9.74
2023-03-29T05:25:42.127Z,11.90
2023-03-29T05:26:44.031Z,10.02
2023-03-29T05:27:45.899Z,8.83
2023-03-29T05:28:47.774Z,12.64
2023-03-29T05:29:49.555Z,12.39
2023-03-29T05:30:51.339Z,10.78
2023-03-29T05:31:53.270Z,10.35
2023-03-29T05:32:55.053Z,9.66
2023-03-29T05:33:56.855Z,10.42
2023-03-29T05:34:58.647Z,11.37
2023-03-29T05:36:00.463Z,11.70
2023-03-29T05:37:02.268Z,10.24
2023-03-29T05:38:04.064Z,9.66
2023-03-29T05:39:05.905Z,10.26
2023-03-29T05:40:08.132Z,9.29
2023-03-29T05:41:09.933Z,9.54
2023-03-29T05:42:11.737Z,9.85
2023-03-29T05:43:13.527Z,10.49
2023-03-29T05:44:15.368Z,8.75
2023-03-29T05:45:17.177Z,9.31
2023-03-29T05:46:19.085Z,10.14
2023-03-29T05:47:20.901Z,8.77
2023-03-29T05:48:22.673Z,9.97
2023-03-29T05:49:24.507Z,10.39
2023-03-29T05:50:26.346Z,10.98
2023-03-29T05:51:28.135Z,7.97
2023-03-29T05:52:29.940Z,9.25
2023-03-29T05:53:34.747Z,8.31
2023-03-29T05:54:36.642Z,9.58
2023-03-29T05:55:38.458Z,10.56
2023-03-29T05:56:40.303Z,7.47
2023-03-29T05:57:42.063Z,8.97
2023-03-29T05:58:43.860Z,9.64
2023-03-29T05:59:45.718Z,8.54
2023-03-29T06:00:47.713Z,9.49
2023-03-29T06:01:49.526Z,9.05
2023-03-29T06:02:51.393Z,7.87
2023-03-29T06:03:53.328Z,7.93
2023-03-29T06:04:55.413Z,8.41
2023-03-29T06:05:57.347Z,10.08
2023-03-29T06:06:59.125Z,9.20
2023-03-29T06:08:00.941Z,9.35
2023-03-29T06:09:02.728Z,8.44
2023-03-29T06:10:04.576Z,9.39
2023-03-29T06:11:06.637Z,7.81
2023-03-29T06:12:08.624Z,7.34
2023-03-29T06:13:10.409Z,9.53
2023-03-29T06:14:12.091Z,8.86
2023-03-29T06:15:13.955Z,7.29
2023-03-29T06:16:15.725Z,8.97
2023-03-29T06:17:17.719Z,7.01
2023-03-29T06:18:19.574Z,8.87
2023-03-29T06:19:21.384Z,8.95
2023-03-29T06:20:23.202Z,9.01
2023-03-29T06:21:25.002Z,8.07
2023-03-29T06:22:26.829Z,8.82
2023-03-29T06:23:28.653Z,8.93
2023-03-29T06:24:30.557Z,7.68
2023-03-29T06:25:32.387Z,6.83
2023-03-29T06:26:34.221Z,8.15
2023-03-29T06:27:36.043Z,6.88
2023-03-29T06:28:37.852Z,7.22
2023-03-29T06:29:39.620Z,8.59
2023-03-29T06:30:41.439Z,8.19
2023-03-29T06:31:43.287Z,8.21
2023-03-29T06:32:45.208Z,9.99
2023-03-29T06:33:47.027Z,8.99
2023-03-29T06:34:48.830Z,9.14
2023-03-29T06:35:50.712Z,11.91
2023-03-29T06:36:52.480Z,22.08
2023-03-29T06:37:54.381Z,18.03
2023-03-29T06:38:56.181Z,19.75
2023-03-29T06:39:58.035Z,19.97
2023-03-29T06:41:00.066Z,19.49
2023-03-29T06:42:10.096Z,24.11
2023-03-29T06:43:05.585Z,23.78
2023-03-29T06:44:07.411Z,24.04
2023-03-29T06:45:09.219Z,21.95
2023-03-29T06:46:11.628Z,21.01
2023-03-29T06:47:13.471Z,20.28
2023-03-29T06:48:15.339Z,23.89
2023-03-29T06:49:17.320Z,28.90
2023-03-29T06:50:19.137Z,28.96
2023-03-29T06:51:23.194Z,9.67
2023-03-29T06:52:24.607Z,10.56
2023-03-29T06:53:26.405Z,7.49
2023-03-29T06:54:28.197Z,6.25
2023-03-29T06:55:30.004Z,5.15
2023-03-29T06:56:31.869Z,5.77
2023-03-29T06:57:33.850Z,7.41
2023-03-29T06:58:35.596Z,6.06
2023-03-29T06:59:37.408Z,8.28
2023-03-29T07:00:39.314Z,7.48
2023-03-29T07:01:41.177Z,7.65
2023-03-29T07:02:43.039Z,6.63
2023-03-29T07:03:46.657Z,6.66
2023-03-29T07:04:48.609Z,5.83
2023-03-29T07:05:50.558Z,6.07
2023-03-29T07:06:52.502Z,7.26
2023-03-29T07:07:54.384Z,6.76
2023-03-29T07:08:56.334Z,5.91
2023-03-29T07:09:58.164Z,5.46
2023-03-29T07:11:00.202Z,6.33
2023-03-29T07:12:02.230Z,5.05
2023-03-29T07:13:04.096Z,5.78
2023-03-29T07:14:05.960Z,5.14
2023-03-29T07:15:07.762Z,4.62
2023-03-29T07:16:09.902Z,4.35
2023-03-29T07:17:11.761Z,6.83
2023-03-29T07:18:13.574Z,4.68
2023-03-29T07:19:15.445Z,6.88
2023-03-29T07:20:17.239Z,5.12
2023-03-29T07:21:19.073Z,4.52
2023-03-29T07:22:20.889Z,6.05
2023-03-29T07:23:22.710Z,5.94
2023-03-29T07:24:24.425Z,6.09
2023-03-29T07:25:26.229Z,5.75
2023-03-29T07:26:28.890Z,8.51
2023-03-29T07:27:31.791Z,8.77
2023-03-29T07:28:33.625Z,9.89
2023-03-29T07:29:35.449Z,11.38
2023-03-29T07:30:37.318Z,9.81
2023-03-29T07:31:39.119Z,5.85
2023-03-29T07:32:41.083Z,5.26
2023-03-29T07:33:43.139Z,6.23
2023-03-29T07:34:44.932Z,7.27
2023-03-29T07:35:46.831Z,6.11
2023-03-29T07:36:48.715Z,6.32
2023-03-29T07:37:50.639Z,7.97
2023-03-29T07:38:53.963Z,9.69
2023-03-29T07:39:56.063Z,9.11
2023-03-29T07:40:57.973Z,8.49
2023-03-29T07:41:59.790Z,6.81
2023-03-29T07:43:02.764Z,6.21
2023-03-29T07:44:04.577Z,5.53
2023-03-29T07:45:06.399Z,6.47
2023-03-29T07:46:08.823Z,6.28
2023-03-29T07:47:10.744Z,6.55
2023-03-29T07:48:12.679Z,8.00
2023-03-29T07:49:14.562Z,8.09
2023-03-29T07:50:16.386Z,8.36
2023-03-29T07:51:18.168Z,8.58
2023-03-29T07:52:20.085Z,12.17
2023-03-29T07:53:21.927Z,14.73
2023-03-29T07:54:23.747Z,10.59
2023-03-29T07:55:25.539Z,10.26
2023-03-29T07:56:27.349Z,9.52
2023-03-29T07:57:29.244Z,11.62
2023-03-29T07:58:31.299Z,11.69
2023-03-29T07:59:33.125Z,11.26
2023-03-29T08:00:34.997Z,7.63
2023-03-29T08:01:36.834Z,7.03
2023-03-29T08:02:38.641Z,8.91
2023-03-29T08:03:40.563Z,12.79
2023-03-29T08:04:42.386Z,9.23
2023-03-29T08:05:44.256Z,6.66
2023-03-29T08:06:46.068Z,11.13
2023-03-29T08:07:47.999Z,9.13
2023-03-29T08:08:49.848Z,8.20
2023-03-29T08:09:51.653Z,9.27
2023-03-29T08:10:53.475Z,7.01
2023-03-29T08:11:55.279Z,11.00
2023-03-29T08:12:57.114Z,10.66
2023-03-29T08:13:58.953Z,9.36
2023-03-29T08:15:00.757Z,8.05
2023-03-29T08:16:02.557Z,6.91
2023-03-29T08:17:04.478Z,6.33
2023-03-29T08:18:06.323Z,6.20
2023-03-29T08:19:08.215Z,6.95
2023-03-29T08:20:10.635Z,5.83
2023-03-29T08:21:12.446Z,9.48
2023-03-29T08:22:14.250Z,9.44
2023-03-29T08:23:16.040Z,9.95
2023-03-29T08:24:20.389Z,7.56
2023-03-29T08:25:21.501Z,7.40
2023-03-29T08:26:23.317Z,7.41
2023-03-29T08:27:25.131Z,4.96
2023-03-29T08:28:26.934Z,5.63
2023-03-29T08:29:28.784Z,4.19
2023-03-29T08:30:30.588Z,5.57
2023-03-29T08:31:32.459Z,8.11
2023-03-29T08:32:34.350Z,9.38
2023-03-29T08:33:36.118Z,14.02
2023-03-29T08:34:37.970Z,14.95
2023-03-29T08:35:39.808Z,18.88
2023-03-29T08:36:41.594Z,22.29
2023-03-29T08:37:43.403Z,32.06
2023-03-29T08:38:45.203Z,33.18
2023-03-29T08:39:47.760Z,30.59
2023-03-29T08:40:49.579Z,37.89
2023-03-29T08:41:51.396Z,19.01
2023-03-29T08:42:53.286Z,11.51
2023-03-29T08:43:55.101Z,6.71
2023-03-29T08:44:56.951Z,6.41
2023-03-29T08:45:58.802Z,8.79
2023-03-29T08:47:00.618Z,10.99
2023-03-29T08:48:02.690Z,12.05
2023-03-29T08:49:04.425Z,9.83
2023-03-29T08:50:06.283Z,10.49
2023-03-29T08:51:09.916Z,8.23
2023-03-29T08:52:11.708Z,7.00
2023-03-29T08:53:13.511Z,8.08
2023-03-29T08:54:15.310Z,5.34
2023-03-29T08:55:17.158Z,5.35
2023-03-29T08:56:18.976Z,2.79
2023-03-29T08:57:20.795Z,3.54
2023-03-29T08:58:22.575Z,7.89
2023-03-29T08:59:24.378Z,5.44
2023-03-29T09:00:26.686Z,4.57
2023-03-29T09:01:28.518Z,4.38
2023-03-29T09:02:30.356Z,4.63
2023-03-29T09:03:32.423Z,4.09
2023-03-29T09:04:34.433Z,6.05
2023-03-29T09:05:36.284Z,7.05
2023-03-29T09:06:38.199Z,6.01
2023-03-29T09:07:40.006Z,6.97
2023-03-29T09:08:41.804Z,8.50
2023-03-29T09:09:43.621Z,9.22
2023-03-29T09:10:45.479Z,10.75
2023-03-29T09:11:47.281Z,10.90
2023-03-29T09:12:49.135Z,7.07
2023-03-29T09:13:51.051Z,4.66
2023-03-29T09:14:53.868Z,6.35
2023-03-29T09:15:55.767Z,5.81
2023-03-29T09:16:57.612Z,5.72
2023-03-29T09:17:59.447Z,6.15
2023-03-29T09:19:01.343Z,6.13
2023-03-29T09:20:03.137Z,6.86
2023-03-29T09:21:04.991Z,5.05
2023-03-29T09:22:06.796Z,4.89
2023-03-29T09:23:08.603Z,4.84
2023-03-29T09:24:10.323Z,5.69
2023-03-29T09:25:12.116Z,6.94
2023-03-29T09:26:14.057Z,6.64
2023-03-29T09:27:15.865Z,4.62
2023-03-29T09:28:17.673Z,4.66
2023-03-29T09:29:19.494Z,5.46
2023-03-29T09:30:21.338Z,8.20
2023-03-29T09:31:23.189Z,8.99
2023-03-29T09:32:24.951Z,9.09
2023-03-29T09:33:26.765Z,9.66
2023-03-29T09:34:28.573Z,8.27
2023-03-29T09:35:30.400Z,9.79
2023-03-29T09:36:32.218Z,8.24
2023-03-29T09:37:34.019Z,7.93
2023-03-29T09:38:35.827Z,6.97
2023-03-29T09:39:37.640Z,6.65
2023-03-29T09:40:39.487Z,7.21
2023-03-29T09:41:41.295Z,10.82
2023-03-29T09:42:43.093Z,8.75
2023-03-29T09:43:44.912Z,7.55
2023-03-29T09:44:46.626Z,8.39
2023-03-29T09:45:48.496Z,10.27
2023-03-29T09:46:50.311Z,14.07
2023-03-29T09:47:52.123Z,7.83
2023-03-29T09:48:53.904Z,5.13
2023-03-29T09:49:55.705Z,5.69
2023-03-29T09:50:57.504Z,5.18
2023-03-29T09:52:17.501Z,8.67
2023-03-29T09:53:22.384Z,10.95
2023-03-29T09:54:24.189Z,9.95
2023-03-29T09:55:26.099Z,7.12
2023-03-29T09:56:28.215Z,7.78
2023-03-29T09:57:30.137Z,6.94
2023-03-29T09:58:31.961Z,10.41
2023-03-29T09:59:33.778Z,9.87
2023-03-29T10:00:35.593Z,8.84
2023-03-29T10:01:37.450Z,6.95
2023-03-29T10:02:39.390Z,9.01
2023-03-29T10:03:41.147Z,10.87
2023-03-29T10:04:42.967Z,6.57
2023-03-29T10:05:44.755Z,6.33
2023-03-29T10:06:46.551Z,9.39
2023-03-29T10:07:48.398Z,8.03
2023-03-29T10:08:50.193Z,9.74
2023-03-29T10:09:52.029Z,8.09
2023-03-29T10:10:53.812Z,9.11
2023-03-29T10:11:55.622Z,7.36
2023-03-29T10:12:57.481Z,6.22
2023-03-29T10:13:59.339Z,5.73
2023-03-29T10:15:01.169Z,4.80
2023-03-29T10:16:02.972Z,5.73
2023-03-29T10:17:04.742Z,7.39
2023-03-29T10:18:06.589Z,6.28
2023-03-29T10:19:08.394Z,5.43
2023-03-29T10:20:10.291Z,5.48
2023-03-29T10:21:12.091Z,5.21
2023-03-29T10:22:13.887Z,4.72
2023-03-29T10:23:15.732Z,4.76
2023-03-29T10:24:17.543Z,5.29
2023-03-29T10:25:19.340Z,5.18
2023-03-29T10:26:21.145Z,6.55
2023-03-29T10:27:23.073Z,4.51
2023-03-29T10:28:24.926Z,4.64
2023-03-29T10:29:26.717Z,4.76
2023-03-29T10:30:28.526Z,4.62
2023-03-29T10:31:30.384Z,6.38
2023-03-29T10:32:32.236Z,7.60
2023-03-29T10:33:34.083Z,4.69
2023-03-29T10:34:35.901Z,5.70
2023-03-29T10:35:37.778Z,5.23
2023-03-29T10:36:39.606Z,4.23
2023-03-29T10:37:41.422Z,4.73
2023-03-29T10:38:43.391Z,4.30
2023-03-29T10:39:45.180Z,5.61
2023-03-29T10:40:47.036Z,4.66
2023-03-29T10:41:48.898Z,4.42
2023-03-29T10:42:50.700Z,4.98
2023-03-29T10:43:52.628Z,4.45
2023-03-29T10:44:54.443Z,4.97
2023-03-29T10:45:56.412Z,6.08
2023-03-29T10:46:58.358Z,6.27
2023-03-29T10:48:00.220Z,3.59
2023-03-29T10:49:02.115Z,3.93
2023-03-29T10:50:06.210Z,6.59
2023-03-29T10:51:08.054Z,4.71
2023-03-29T10:52:09.864Z,4.35
2023-03-29T10:53:11.660Z,4.72
2023-03-29T10:54:13.499Z,3.76
2023-03-29T10:55:15.305Z,4.21
2023-03-29T10:56:17.113Z,5.57
2023-03-29T10:57:20.375Z,4.43
2023-03-29T10:58:22.528Z,3.87
2023-03-29T10:59:24.423Z,4.44
2023-03-29T11:00:26.279Z,3.47
2023-03-29T11:01:28.119Z,4.28
2023-03-29T11:02:29.989Z,4.67
2023-03-29T11:03:31.880Z,5.20
2023-03-29T11:04:34.356Z,5.17
2023-03-29T11:05:36.144Z,9.11
2023-03-29T11:06:37.942Z,11.03
2023-03-29T11:07:39.751Z,9.49
2023-03-29T11:08:41.552Z,6.97
2023-03-29T11:09:43.400Z,7.58
2023-03-29T11:10:45.193Z,6.23
2023-03-29T11:11:46.993Z,7.86
2023-03-29T11:12:48.888Z,5.47
2023-03-29T11:13:50.671Z,5.67
2023-03-29T11:14:52.518Z,5.04
2023-03-29T11:15:54.388Z,6.48
2023-03-29T11:16:56.173Z,9.14
2023-03-29T11:17:58.092Z,7.77
2023-03-29T11:18:59.890Z,9.37
2023-03-29T11:20:03.712Z,11.89
2023-03-29T11:21:08.595Z,10.71
2023-03-29T11:22:09.045Z,7.69
2023-03-29T11:23:11.370Z,8.40
2023-03-29T11:24:13.187Z,9.77
2023-03-29T11:25:15.032Z,12.26
2023-03-29T11:26:16.946Z,9.99
2023-03-29T11:27:18.756Z,8.37
2023-03-29T11:28:20.573Z,9.78
2023-03-29T11:29:22.348Z,9.59
2023-03-29T11:30:24.214Z,7.39
2023-03-29T11:31:26.276Z,5.84
2023-03-29T11:32:28.119Z,5.41
2023-03-29T11:33:29.923Z,6.71
2023-03-29T11:34:31.725Z,6.86
2023-03-29T11:35:33.585Z,6.40
2023-03-29T11:36:35.369Z,4.80
2023-03-29T11:37:37.167Z,5.36
2023-03-29T11:38:38.975Z,7.11
2023-03-29T11:39:40.786Z,9.31
2023-03-29T11:40:42.629Z,7.04
2023-03-29T11:41:44.438Z,6.53
2023-03-29T11:42:46.345Z,6.29
2023-03-29T11:43:48.165Z,7.32
2023-03-29T11:44:50.793Z,6.85
2023-03-29T11:45:53.616Z,5.95
2023-03-29T11:46:55.482Z,6.84
2023-03-29T11:47:57.356Z,7.13
2023-03-29T11:48:59.145Z,5.41
2023-03-29T11:50:00.947Z,6.57
2023-03-29T11:51:02.832Z,10.31
2023-03-29T11:52:04.772Z,7.79
2023-03-29T11:53:06.580Z,7.30
2023-03-29T11:54:08.374Z,5.19
2023-03-29T11:55:10.197Z,6.63
2023-03-29T11:56:12.038Z,9.13
2023-03-29T11:57:13.883Z,6.15
2023-03-29T11:58:15.764Z,8.43
2023-03-29T11:59:17.538Z,5.76
2023-03-29T12:00:19.336Z,5.89
2023-03-29T12:01:21.790Z,6.05
2023-03-29T12:02:23.719Z,8.10
2023-03-29T12:03:25.686Z,12.58
2023-03-29T12:04:27.567Z,8.93
2023-03-29T12:05:29.406Z,9.33
2023-03-29T12:06:31.255Z,10.02
2023-03-29T12:07:33.068Z,12.16
2023-03-29T12:08:34.872Z,12.74
2023-03-29T12:09:36.691Z,13.86
2023-03-29T12:10:38.480Z,12.45
2023-03-29T12:11:40.346Z,13.11
2023-03-29T12:12:42.157Z,15.82
2023-03-29T12:13:43.962Z,14.37
2023-03-29T12:14:45.783Z,9.71
2023-03-29T12:15:47.586Z,8.27
2023-03-29T12:16:49.580Z,7.79
2023-03-29T12:17:51.429Z,8.17
2023-03-29T12:18:53.223Z,9.28
2023-03-29T12:19:55.138Z,10.50
2023-03-29T12:20:56.938Z,11.45
2023-03-29T12:21:58.788Z,10.77
2023-03-29T12:23:00.592Z,10.27
2023-03-29T12:24:02.393Z,12.47
2023-03-29T12:25:04.219Z,10.57
2023-03-29T12:26:06.137Z,13.39
2023-03-29T12:27:07.992Z,13.05
2023-03-29T12:28:09.800Z,11.65
2023-03-29T12:29:11.618Z,15.25
2023-03-29T12:30:13.740Z,9.38
2023-03-29T12:31:15.787Z,8.54
2023-03-29T12:32:17.746Z,9.52
2023-03-29T12:33:19.552Z,11.59
2023-03-29T12:34:21.364Z,12.00
2023-03-29T12:35:23.167Z,13.61
2023-03-29T12:36:24.974Z,7.93
2023-03-29T12:37:26.837Z,9.41
2023-03-29T12:38:30.745Z,7.79
2023-03-29T12:39:32.250Z,9.64
2023-03-29T12:40:34.061Z,9.47
2023-03-29T12:41:35.862Z,8.19
2023-03-29T12:42:37.771Z,9.74
2023-03-29T12:43:39.704Z,9.29
2023-03-29T12:44:41.473Z,8.81
2023-03-29T12:45:43.316Z,9.36
2023-03-29T12:46:45.203Z,9.62
2023-03-29T12:47:47.343Z,7.97
2023-03-29T12:48:49.179Z,7.65
2023-03-29T12:49:51.006Z,6.55
2023-03-29T12:50:52.817Z,9.04
2023-03-29T12:51:54.630Z,6.45
2023-03-29T12:52:56.472Z,8.33
2023-03-29T12:53:58.392Z,9.33
2023-03-29T12:55:00.195Z,8.89
2023-03-29T12:56:02.218Z,9.79
2023-03-29T12:57:04.271Z,10.92
2023-03-29T12:58:06.082Z,15.69
2023-03-29T12:59:07.892Z,14.87
2023-03-29T13:00:09.681Z,24.94
2023-03-29T13:01:11.579Z,25.03
2023-03-29T13:02:13.449Z,12.58
2023-03-29T13:03:15.426Z,12.39
2023-03-29T13:04:17.202Z,12.23
2023-03-29T13:05:19.032Z,8.97
2023-03-29T13:06:20.808Z,9.38
2023-03-29T13:07:22.603Z,7.94
2023-03-29T13:08:24.454Z,8.48
2023-03-29T13:09:26.258Z,8.64
2023-03-29T13:10:28.062Z,8.91
2023-03-29T13:11:29.859Z,9.18
2023-03-29T13:12:33.595Z,9.27
2023-03-29T13:13:35.352Z,13.21
2023-03-29T13:14:37.153Z,9.72
2023-03-29T13:15:38.968Z,11.31
2023-03-29T13:16:40.795Z,15.37
2023-03-29T13:17:44.263Z,14.89
2023-03-29T13:18:46.222Z,11.84
2023-03-29T13:19:48.036Z,7.25
2023-03-29T13:20:49.950Z,8.31
2023-03-29T13:21:51.766Z,9.34
2023-03-29T13:22:53.661Z,8.63
2023-03-29T13:23:55.507Z,10.13
2023-03-29T13:24:57.310Z,9.66
2023-03-29T13:25:59.119Z,9.75
2023-03-29T13:27:00.933Z,7.76
2023-03-29T13:28:02.723Z,8.33
2023-03-29T13:29:04.581Z,9.48
2023-03-29T13:30:06.561Z,9.46
2023-03-29T13:31:08.470Z,8.11
2023-03-29T13:32:10.405Z,9.45
2023-03-29T13:33:12.232Z,13.00
2023-03-29T13:34:14.076Z,10.08
2023-03-29T13:35:15.893Z,10.01